Mtsensk, Russia
Current Conditions -  °F | °C
As of 7:00 PM on Friday 24 Oct 2014 (Local Time) from UUBP Reporting Station
Clear Clear  
Wind Chill: 13°   Ceiling: Unl
Heat Index: 21°   Visibility: 6mi
Dew Point: 16°   Wind: 7mph
Humidity: 80%   Direction: 360°N
Pressure: 30.56"   Gusts: NA
Location:  53.27°N, 36.55°E
Report Text: UUBP 241600Z 36003MPS CAVOK M06/M09 Q1035 NOSIG RMK QFE75834CLRD70
Loading
Personal Weather Stations






























Interactive Weather Map
Tropical Storm Tracking
New forecast layout! Learn more

10-Day Weather Forecast

Advertisements
Track Severe Weather on mobile